createdAt,value
2022-10-17T00:01:30.672Z,94988.22
2022-10-17T00:03:57.447Z,94993.22
2022-10-17T00:06:24.147Z,94998.63
2022-10-17T00:08:51.026Z,94995.25
2022-10-17T00:11:21.000Z,94999.50
2022-10-17T00:13:48.707Z,95004.47
2022-10-17T00:16:16.535Z,95002.06
2022-10-17T00:18:43.307Z,95007.69
2022-10-17T00:21:17.976Z,95004.59
2022-10-17T00:23:45.386Z,95011.41
2022-10-17T00:26:12.235Z,95000.03
2022-10-17T00:28:39.053Z,95021.63
2022-10-17T00:31:07.070Z,95007.28
2022-10-17T00:33:35.426Z,95010.22
2022-10-17T00:36:04.278Z,95012.28
2022-10-17T00:38:31.110Z,95001.97
2022-10-17T00:40:57.829Z,95012.06
2022-10-17T00:43:24.625Z,95003.06
2022-10-17T00:45:51.276Z,95015.03
2022-10-17T00:48:22.518Z,95010.78
2022-10-17T00:50:50.555Z,95013.50
2022-10-17T00:53:17.476Z,95000.84
2022-10-17T00:55:49.489Z,95015.13
2022-10-17T00:58:16.861Z,95018.00
2022-10-17T01:00:44.096Z,95012.91
2022-10-17T01:03:10.884Z,95013.69
2022-10-17T01:05:38.609Z,95007.72
2022-10-17T01:08:05.507Z,95009.53
2022-10-17T01:10:53.485Z,95007.72
2022-10-17T01:13:28.598Z,95007.47
2022-10-17T01:16:17.243Z,95011.22
2022-10-17T01:18:52.687Z,95011.38
2022-10-17T01:21:32.077Z,95002.53
2022-10-17T01:24:25.298Z,95001.03
2022-10-17T01:27:30.043Z,95004.00
2022-10-17T01:30:21.258Z,95003.16
2022-10-17T01:32:54.925Z,94998.00
2022-10-17T01:35:41.954Z,94997.97
2022-10-17T01:38:11.686Z,94991.56
2022-10-17T01:41:02.900Z,94999.34
2022-10-17T01:43:47.487Z,94992.09
2022-10-17T01:46:24.425Z,94995.50
2022-10-17T01:48:51.348Z,94998.22
2022-10-17T01:51:54.718Z,94997.47
2022-10-17T01:54:24.846Z,94992.34
2022-10-17T01:56:55.396Z,94999.84
2022-10-17T01:59:29.513Z,94993.75
2022-10-17T02:01:57.568Z,95000.41
2022-10-17T02:04:25.445Z,94993.66
2022-10-17T02:06:52.276Z,94996.16
2022-10-17T02:09:24.337Z,94997.06
2022-10-17T02:12:09.357Z,94990.06
2022-10-17T02:14:54.238Z,94994.91
2022-10-17T02:17:33.648Z,94997.38
2022-10-17T02:20:35.727Z,95002.19
2022-10-17T02:25:51.639Z,95005.78
2022-10-17T02:28:32.048Z,94992.75
2022-10-17T02:31:02.980Z,95005.81
2022-10-17T02:33:34.697Z,95002.19
2022-10-17T02:36:05.970Z,95007.47
2022-10-17T02:38:33.398Z,95008.63
2022-10-17T02:41:00.744Z,95001.63
2022-10-17T02:43:28.447Z,95011.41
2022-10-17T02:45:55.737Z,95014.25
2022-10-17T02:48:27.206Z,95011.06
2022-10-17T02:51:41.357Z,95007.94
2022-10-17T02:54:26.501Z,95014.63
2022-10-17T02:57:01.416Z,94999.28
2022-10-17T02:59:29.632Z,95011.31
2022-10-17T03:01:56.636Z,95011.16
2022-10-17T03:04:23.306Z,95013.56
2022-10-17T03:06:49.987Z,95009.19
2022-10-17T03:09:16.725Z,95017.22
2022-10-17T03:11:43.342Z,95013.56
2022-10-17T03:14:10.157Z,95016.63
2022-10-17T03:16:36.858Z,95012.59
2022-10-17T03:19:03.526Z,95017.75
2022-10-17T03:21:30.344Z,95014.13
2022-10-17T03:23:57.068Z,95021.03
2022-10-17T03:26:23.817Z,95021.84
2022-10-17T03:28:53.501Z,95024.25
2022-10-17T03:31:22.076Z,95021.22
2022-10-17T03:33:48.838Z,95025.53
2022-10-17T03:36:17.439Z,95025.72
2022-10-17T03:38:44.677Z,95025.63
2022-10-17T03:41:11.760Z,95030.47
2022-10-17T03:43:39.685Z,95025.56
2022-10-17T03:46:07.374Z,95035.72
2022-10-17T03:48:34.323Z,95034.38
2022-10-17T03:51:06.349Z,95035.91
2022-10-17T03:53:33.304Z,95032.16
2022-10-17T03:56:15.755Z,95039.94
2022-10-17T03:58:42.748Z,95035.88
2022-10-17T04:01:11.905Z,95034.94
2022-10-17T04:03:39.157Z,95037.69
2022-10-17T04:06:06.797Z,95032.97
2022-10-17T04:08:33.997Z,95036.00
2022-10-17T04:11:01.967Z,95044.91
2022-10-17T04:13:28.979Z,95047.06
2022-10-17T04:16:00.418Z,95046.88
2022-10-17T04:18:27.493Z,95047.22
2022-10-17T04:20:54.233Z,95048.13
2022-10-17T04:23:20.875Z,95056.50
2022-10-17T04:25:47.444Z,95050.97
2022-10-17T04:28:14.078Z,95051.06
2022-10-17T04:30:43.596Z,95061.50
2022-10-17T04:33:12.121Z,95060.19
2022-10-17T04:35:39.048Z,95055.72
2022-10-17T04:38:05.668Z,95058.28
2022-10-17T04:40:32.259Z,95053.22
2022-10-17T04:42:58.890Z,95048.47
2022-10-17T04:45:25.786Z,95054.38
2022-10-17T04:47:52.368Z,95064.16
2022-10-17T04:50:18.913Z,95067.06
2022-10-17T04:52:45.505Z,95062.53
2022-10-17T04:55:12.107Z,95055.44
2022-10-17T04:57:38.774Z,95059.16
2022-10-17T05:00:06.002Z,95056.41
2022-10-17T05:02:32.679Z,95060.19
2022-10-17T05:04:59.287Z,95065.06
2022-10-17T05:07:25.963Z,95059.34
2022-10-17T05:09:52.692Z,95061.22
2022-10-17T05:12:19.367Z,95063.19
2022-10-17T05:14:46.114Z,95070.28
2022-10-17T05:17:12.734Z,95072.50
2022-10-17T05:19:39.426Z,95071.38
2022-10-17T05:22:06.187Z,95062.75
2022-10-17T05:24:32.914Z,95076.19
2022-10-17T05:26:59.696Z,95072.22
2022-10-17T05:29:26.396Z,95079.91
2022-10-17T05:31:53.289Z,95081.75
2022-10-17T05:34:20.023Z,95080.22
2022-10-17T05:36:46.756Z,95085.19
2022-10-17T05:39:15.004Z,95086.41
2022-10-17T05:41:41.736Z,95084.63
2022-10-17T05:44:08.476Z,95091.34
2022-10-17T05:46:35.183Z,95091.00
2022-10-17T05:49:05.289Z,95095.25
2022-10-17T05:51:34.726Z,95101.09
2022-10-17T05:54:01.633Z,95107.75
2022-10-17T05:56:28.328Z,95112.59
2022-10-17T05:58:58.634Z,95109.38
2022-10-17T06:01:27.652Z,95115.28
2022-10-17T06:03:54.416Z,95115.03
2022-10-17T06:06:21.558Z,95118.38
2022-10-17T06:08:48.313Z,95112.72
2022-10-17T06:11:15.056Z,95120.34
2022-10-17T06:13:42.112Z,95127.66
2022-10-17T06:16:08.816Z,95124.25
2022-10-17T06:18:35.693Z,95127.28
2022-10-17T06:21:08.166Z,95128.28
2022-10-17T06:23:34.894Z,95133.88
2022-10-17T06:26:03.043Z,95126.53
2022-10-17T06:28:30.327Z,95130.38
2022-10-17T06:30:57.075Z,95130.34
2022-10-17T06:33:23.974Z,95134.38
2022-10-17T06:35:54.557Z,95120.56
2022-10-17T06:38:21.884Z,95129.22
2022-10-17T06:40:48.674Z,95134.59
2022-10-17T06:43:15.546Z,95125.00
2022-10-17T06:45:42.348Z,95135.06
2022-10-17T06:48:09.264Z,95137.59
2022-10-17T06:50:36.012Z,95139.28
2022-10-17T06:53:02.916Z,95137.78
2022-10-17T06:55:31.516Z,95146.16
2022-10-17T06:57:58.534Z,95149.44
2022-10-17T07:00:26.859Z,95151.91
2022-10-17T07:02:53.662Z,95147.16
2022-10-17T07:05:20.464Z,95154.13
2022-10-17T07:07:49.701Z,95153.88
2022-10-17T07:10:18.516Z,95148.53
2022-10-17T07:12:45.983Z,95157.75
2022-10-17T07:15:13.281Z,95148.09
2022-10-17T07:17:40.093Z,95143.41
2022-10-17T07:20:07.351Z,95149.44
2022-10-17T07:22:34.114Z,95148.44
2022-10-17T07:25:00.793Z,95151.09
2022-10-17T07:27:27.965Z,95155.63
2022-10-17T07:29:54.986Z,95157.59
2022-10-17T07:32:21.766Z,95156.91
2022-10-17T07:34:48.496Z,95155.97
2022-10-17T07:37:15.186Z,95161.56
2022-10-17T07:39:41.888Z,95166.16
2022-10-17T07:42:08.639Z,95159.00
2022-10-17T07:44:35.962Z,95154.78
2022-10-17T07:47:02.732Z,95158.78
2022-10-17T07:49:29.636Z,95169.72
2022-10-17T07:51:56.397Z,95165.72
2022-10-17T07:54:23.167Z,95169.00
2022-10-17T07:56:50.844Z,95165.09
2022-10-17T07:59:20.648Z,95176.84
2022-10-17T08:01:47.362Z,95176.06
2022-10-17T08:04:14.176Z,95166.50
2022-10-17T08:06:40.844Z,95177.00
2022-10-17T08:09:07.640Z,95173.56
2022-10-17T08:11:36.045Z,95178.97
2022-10-17T08:14:02.926Z,95175.31
2022-10-17T08:16:29.771Z,95163.88
2022-10-17T08:18:56.577Z,95166.28
2022-10-17T08:21:23.356Z,95174.81
2022-10-17T08:23:50.077Z,95172.34
2022-10-17T08:26:17.431Z,95164.97
2022-10-17T08:28:44.478Z,95170.41
2022-10-17T08:31:18.253Z,95171.25
2022-10-17T08:33:45.419Z,95168.06
2022-10-17T08:36:17.943Z,95156.31
2022-10-17T08:38:47.995Z,95161.03
2022-10-17T08:41:36.821Z,95146.13
2022-10-17T08:44:25.826Z,95166.44
2022-10-17T08:46:57.207Z,95163.81
2022-10-17T08:49:34.728Z,95157.91
2022-10-17T08:52:12.456Z,95145.72
2022-10-17T08:54:46.112Z,95145.28
2022-10-17T08:57:17.071Z,95146.72
2022-10-17T08:59:45.908Z,95126.66
2022-10-17T09:02:41.685Z,95137.72
2022-10-17T09:05:26.892Z,95138.44
2022-10-17T09:08:05.332Z,95141.25
2022-10-17T09:10:58.192Z,95150.66
2022-10-17T09:16:44.714Z,95150.31
2022-10-17T09:19:21.184Z,95140.56
2022-10-17T09:22:01.885Z,95139.00
2022-10-17T09:24:38.912Z,95142.25
2022-10-17T09:27:09.883Z,95141.03
2022-10-17T09:29:41.500Z,95143.13
2022-10-17T09:32:22.054Z,95134.28
2022-10-17T09:34:48.712Z,95122.66
2022-10-17T09:37:16.723Z,95132.44
2022-10-17T09:39:44.113Z,95137.00
2022-10-17T09:42:14.833Z,95128.16
2022-10-17T09:45:11.872Z,95115.72
2022-10-17T09:47:41.574Z,95116.97
2022-10-17T09:50:32.616Z,95133.56
2022-10-17T09:53:09.847Z,95106.56
2022-10-17T09:55:48.627Z,95133.88
2022-10-17T09:58:15.560Z,95139.34
2022-10-17T10:00:45.100Z,95141.31
2022-10-17T10:03:21.908Z,95147.53
2022-10-17T10:06:35.397Z,95144.44
2022-10-17T10:09:06.218Z,95148.97
2022-10-17T10:11:47.462Z,95148.13
2022-10-17T10:14:22.469Z,95145.09
2022-10-17T10:16:50.129Z,95135.78
2022-10-17T10:19:32.770Z,95133.88
2022-10-17T10:22:14.996Z,95124.91
2022-10-17T10:24:42.022Z,95133.28
2022-10-17T10:27:16.597Z,95118.78
2022-10-17T10:29:49.429Z,95116.22
2022-10-17T10:32:28.130Z,95123.63
2022-10-17T10:35:09.239Z,95111.47
2022-10-17T10:37:41.697Z,95118.94
2022-10-17T10:40:20.737Z,95106.78
2022-10-17T10:43:04.003Z,95107.31
2022-10-17T10:45:53.586Z,95112.84
2022-10-17T10:48:32.510Z,95111.53
2022-10-17T10:51:21.737Z,95105.72
2022-10-17T10:54:03.808Z,95100.91
2022-10-17T10:56:35.337Z,95099.09
2022-10-17T10:59:13.562Z,95092.97
2022-10-17T11:01:54.218Z,95082.53
2022-10-17T11:04:28.908Z,95081.94
2022-10-17T11:07:01.729Z,95093.53
2022-10-17T11:09:55.090Z,95084.31
2022-10-17T11:12:25.867Z,95079.22
2022-10-17T11:15:01.899Z,95078.69
2022-10-17T11:17:47.580Z,95073.97
2022-10-17T11:20:28.011Z,95067.22
2022-10-17T11:22:59.253Z,95076.94
2022-10-17T11:25:36.031Z,95068.59
2022-10-17T11:28:05.405Z,95066.16
2022-10-17T11:31:03.324Z,95067.97
2022-10-17T11:33:47.497Z,95065.22
2022-10-17T11:36:15.353Z,95056.19
2022-10-17T11:38:50.117Z,95066.00
2022-10-17T11:41:27.667Z,95052.00
2022-10-17T11:44:00.918Z,95061.03
2022-10-17T11:46:28.805Z,95049.28
2022-10-17T11:49:20.373Z,95050.19
2022-10-17T11:52:02.916Z,95050.69
2022-10-17T11:54:46.229Z,95045.13
2022-10-17T11:57:50.111Z,95049.38
2022-10-17T12:00:40.858Z,95044.97
2022-10-17T12:03:46.399Z,95042.63
2022-10-17T12:06:31.858Z,95033.16
2022-10-17T12:09:07.761Z,95039.69
2022-10-17T12:11:41.020Z,95036.16
2022-10-17T12:14:33.949Z,95032.66
2022-10-17T12:17:01.529Z,95027.47
2022-10-17T12:19:32.673Z,95031.97
2022-10-17T12:22:26.152Z,95029.78
2022-10-17T12:25:03.970Z,95033.41
2022-10-17T12:27:45.947Z,95029.47
2022-10-17T12:30:12.724Z,95026.75
2022-10-17T12:33:07.441Z,95024.28
2022-10-17T12:35:36.860Z,95018.44
2022-10-17T12:38:32.957Z,95025.97
2022-10-17T12:41:00.469Z,95010.03
2022-10-17T12:43:30.348Z,95020.03
2022-10-17T12:46:01.119Z,95022.03
2022-10-17T12:48:33.997Z,95018.31
2022-10-17T12:53:58.953Z,95023.34
2022-10-17T12:56:34.842Z,95014.97
2022-10-17T12:59:01.769Z,95018.66
2022-10-17T13:01:33.645Z,95019.34
2022-10-17T13:04:06.679Z,95020.31
2022-10-17T13:06:40.445Z,95011.50
2022-10-17T13:09:28.481Z,95015.56
2022-10-17T13:11:57.610Z,95011.56
2022-10-17T13:14:25.389Z,95011.66
2022-10-17T13:16:57.037Z,95018.16
2022-10-17T13:19:26.100Z,95011.34
2022-10-17T13:22:15.797Z,95017.63
2022-10-17T13:24:42.541Z,95023.75
2022-10-17T13:27:30.184Z,95015.31
2022-10-17T13:29:58.818Z,95012.16
2022-10-17T13:32:27.921Z,95011.34
2022-10-17T13:35:42.040Z,95014.53
2022-10-17T13:38:13.262Z,95020.13
2022-10-17T13:40:50.086Z,95022.09
2022-10-17T13:43:19.493Z,95013.22
2022-10-17T13:45:51.949Z,95014.16
2022-10-17T13:48:24.449Z,95019.19
2022-10-17T13:51:02.669Z,95012.16
2022-10-17T13:53:40.119Z,95019.84
2022-10-17T13:56:29.871Z,95019.78
2022-10-17T13:59:03.632Z,95019.91
2022-10-17T14:01:30.870Z,95011.13
2022-10-17T14:04:08.883Z,95012.72
2022-10-17T14:06:47.999Z,95013.41
2022-10-17T14:09:22.548Z,95021.03
2022-10-17T14:12:19.221Z,95026.50
2022-10-17T14:15:09.894Z,95017.53
2022-10-17T14:17:38.671Z,95024.25
2022-10-17T14:20:34.086Z,95023.00
2022-10-17T14:23:21.103Z,95031.78
2022-10-17T14:25:40.785Z,95031.00
2022-10-17T14:28:09.339Z,95035.28
2022-10-17T14:30:55.862Z,95042.22
2022-10-17T14:33:26.940Z,95038.53
2022-10-17T14:35:56.118Z,95036.13
2022-10-17T14:38:23.058Z,95036.34
2022-10-17T14:41:15.715Z,95044.81
2022-10-17T14:43:56.418Z,95043.78
2022-10-17T14:46:23.642Z,95049.50
2022-10-17T14:49:02.480Z,95043.63
2022-10-17T14:51:35.982Z,95041.13
2022-10-17T14:54:29.868Z,95043.22
2022-10-17T14:56:56.732Z,95046.91
2022-10-17T15:02:12.396Z,95059.81
2022-10-17T15:04:39.158Z,95060.53
2022-10-17T15:07:05.919Z,95052.19
2022-10-17T15:09:32.917Z,95060.09
2022-10-17T15:12:03.292Z,95056.22
2022-10-17T15:14:30.002Z,95050.78
2022-10-17T15:16:56.720Z,95054.03
2022-10-17T15:19:23.417Z,95059.09
2022-10-17T15:21:50.195Z,95066.91
2022-10-17T15:24:16.949Z,95067.19
2022-10-17T15:26:43.851Z,95067.19
2022-10-17T15:29:16.139Z,95066.41
2022-10-17T15:31:42.866Z,95069.34
2022-10-17T15:34:09.590Z,95069.25
2022-10-17T15:36:40.293Z,95079.66
2022-10-17T15:39:07.070Z,95077.63
2022-10-17T15:41:33.869Z,95073.25
2022-10-17T15:44:00.790Z,95079.22
2022-10-17T15:46:29.831Z,95090.09
2022-10-17T15:48:57.526Z,95079.59
2022-10-17T15:51:24.336Z,95084.91
2022-10-17T15:53:51.040Z,95087.56
2022-10-17T15:56:25.779Z,95089.66
2022-10-17T15:58:52.778Z,95098.81
2022-10-17T16:01:22.670Z,95103.78
2022-10-17T16:03:50.706Z,95097.31
2022-10-17T16:06:18.910Z,95101.84
2022-10-17T16:08:49.070Z,95107.56
2022-10-17T16:11:37.441Z,95105.50
2022-10-17T16:14:06.476Z,95104.59
2022-10-17T16:16:33.796Z,95099.91
2022-10-17T16:19:01.506Z,95110.09
2022-10-17T16:24:03.177Z,95119.53
2022-10-17T16:26:29.883Z,95129.28
2022-10-17T16:28:58.196Z,95119.44
2022-10-17T16:31:29.389Z,95126.22
2022-10-17T16:33:57.249Z,95135.09
2022-10-17T16:36:23.961Z,95129.63
2022-10-17T16:38:51.657Z,95129.78
2022-10-17T16:41:25.187Z,95126.81
2022-10-17T16:43:53.729Z,95137.38
2022-10-17T16:46:21.328Z,95137.22
2022-10-17T16:48:48.410Z,95141.56
2022-10-17T16:51:16.358Z,95145.41
2022-10-17T16:53:46.210Z,95150.13
2022-10-17T16:56:15.421Z,95148.19
2022-10-17T16:58:43.059Z,95156.78
2022-10-17T17:01:15.279Z,95150.50
2022-10-17T17:03:43.641Z,95155.97
2022-10-17T17:06:14.070Z,95155.06
2022-10-17T17:08:42.026Z,95162.81
2022-10-17T17:11:10.169Z,95161.22
2022-10-17T17:13:37.366Z,95169.31
2022-10-17T17:16:06.989Z,95172.63
2022-10-17T17:18:34.342Z,95165.56
2022-10-17T17:21:02.652Z,95168.84
2022-10-17T17:23:30.196Z,95165.91
2022-10-17T17:26:01.268Z,95163.03
2022-10-17T17:28:28.483Z,95169.28
2022-10-17T17:30:55.759Z,95165.66
2022-10-17T17:33:23.838Z,95166.28
2022-10-17T17:36:01.219Z,95180.03
2022-10-17T17:38:32.369Z,95172.00
2022-10-17T17:40:59.421Z,95167.28
2022-10-17T17:43:26.091Z,95176.38
2022-10-17T17:45:52.809Z,95181.09
2022-10-17T17:48:20.340Z,95178.50
2022-10-17T17:50:47.159Z,95178.00
2022-10-17T17:53:15.868Z,95184.69
2022-10-17T17:55:42.762Z,95180.06
2022-10-17T17:58:09.669Z,95186.81
2022-10-17T18:00:36.696Z,95181.41
2022-10-17T18:03:03.560Z,95187.44
2022-10-17T18:05:30.777Z,95181.09
2022-10-17T18:07:57.547Z,95171.59
2022-10-17T18:10:24.559Z,95181.19
2022-10-17T18:12:51.252Z,95181.84
2022-10-17T18:15:17.991Z,95178.91
2022-10-17T18:17:44.718Z,95182.84
2022-10-17T18:20:11.948Z,95181.41
2022-10-17T18:22:38.831Z,95178.34
2022-10-17T18:25:06.748Z,95191.09
2022-10-17T18:27:33.444Z,95190.44
2022-10-17T18:30:00.193Z,95187.72
2022-10-17T18:32:27.210Z,95189.44
2022-10-17T18:34:54.107Z,95188.06
2022-10-17T18:37:20.771Z,95188.94
2022-10-17T18:39:51.593Z,95189.50
2022-10-17T18:42:18.608Z,95192.06
2022-10-17T18:44:45.310Z,95195.00
2022-10-17T18:47:11.989Z,95196.19
2022-10-17T18:49:38.778Z,95198.69
2022-10-17T18:52:05.461Z,95197.16
2022-10-17T18:54:33.591Z,95196.34
2022-10-17T18:57:00.799Z,95196.44
2022-10-17T18:59:27.572Z,95195.28
2022-10-17T19:01:54.385Z,95200.53
2022-10-17T19:04:21.319Z,95202.31
2022-10-17T19:06:48.049Z,95193.91
2022-10-17T19:09:15.580Z,95195.31
2022-10-17T19:11:42.943Z,95201.44
2022-10-17T19:14:14.195Z,95198.69
2022-10-17T19:16:46.156Z,95202.69
2022-10-17T19:19:12.732Z,95206.69
2022-10-17T19:21:39.464Z,95196.47
2022-10-17T19:24:08.336Z,95202.53
2022-10-17T19:26:36.427Z,95203.34
2022-10-17T19:29:04.323Z,95197.38
2022-10-17T19:31:31.998Z,95201.59
2022-10-17T19:33:59.162Z,95201.97
2022-10-17T19:36:32.243Z,95198.19
2022-10-17T19:39:04.927Z,95203.22
2022-10-17T19:41:32.272Z,95195.00
2022-10-17T19:44:00.290Z,95196.22
2022-10-17T19:46:28.063Z,95197.22
2022-10-17T19:48:54.942Z,95189.66
2022-10-17T19:51:26.478Z,95198.66
2022-10-17T19:53:55.687Z,95200.25
2022-10-17T19:56:23.823Z,95192.44
2022-10-17T19:58:51.075Z,95199.06
2022-10-17T20:01:22.842Z,95212.91
2022-10-17T20:03:49.738Z,95205.47
2022-10-17T20:06:17.150Z,95207.88
2022-10-17T20:08:44.060Z,95208.06
2022-10-17T20:11:16.446Z,95211.47
2022-10-17T20:13:43.592Z,95215.84
2022-10-17T20:16:14.791Z,95207.25
2022-10-17T20:18:41.462Z,95207.06
2022-10-17T20:21:11.950Z,95207.63
2022-10-17T20:23:39.439Z,95207.63
2022-10-17T20:26:25.485Z,95209.03
2022-10-17T20:28:57.813Z,95216.03
2022-10-17T20:31:24.596Z,95218.63
2022-10-17T20:33:58.616Z,95220.81
2022-10-17T20:36:25.540Z,95224.84
2022-10-17T20:38:56.298Z,95223.81
2022-10-17T20:41:23.500Z,95233.47
2022-10-17T20:43:51.828Z,95233.63
2022-10-17T20:46:35.102Z,95231.63
2022-10-17T20:49:02.751Z,95240.03
2022-10-17T20:51:29.410Z,95231.78
2022-10-17T20:56:29.056Z,95238.78
2022-10-17T20:58:57.833Z,95234.53
2022-10-17T21:01:25.342Z,95230.75
2022-10-17T21:03:52.639Z,95234.16
2022-10-17T21:06:19.560Z,95233.34
2022-10-17T21:08:47.418Z,95230.66
2022-10-17T21:11:19.490Z,95235.31
2022-10-17T21:13:47.095Z,95235.09
2022-10-17T21:16:16.333Z,95237.94
2022-10-17T21:18:43.498Z,95233.50
2022-10-17T21:21:20.894Z,95230.19
2022-10-17T21:23:49.225Z,95241.00
2022-10-17T21:26:17.321Z,95243.84
2022-10-17T21:28:45.228Z,95230.53
2022-10-17T21:31:11.827Z,95240.97
2022-10-17T21:33:39.178Z,95239.78
2022-10-17T21:36:06.304Z,95244.13
2022-10-17T21:38:36.327Z,95242.38
2022-10-17T21:41:03.661Z,95243.88
2022-10-17T21:43:30.526Z,95245.38
2022-10-17T21:45:57.122Z,95248.38
2022-10-17T21:48:23.711Z,95249.06
2022-10-17T21:50:56.706Z,95243.88
2022-10-17T21:53:23.273Z,95250.75
2022-10-17T21:55:49.838Z,95241.97
2022-10-17T21:58:16.505Z,95248.63
2022-10-17T22:00:43.045Z,95245.84
2022-10-17T22:03:12.735Z,95247.47
2022-10-17T22:05:39.335Z,95233.31
2022-10-17T22:08:05.984Z,95233.56
2022-10-17T22:10:32.600Z,95242.47
2022-10-17T22:12:59.255Z,95239.50
2022-10-17T22:15:25.867Z,95231.63
2022-10-17T22:17:52.426Z,95233.13
2022-10-17T22:20:18.976Z,95236.72
2022-10-17T22:22:45.577Z,95232.56
2022-10-17T22:25:12.136Z,95239.31
2022-10-17T22:27:38.741Z,95239.75
2022-10-17T22:30:05.860Z,95233.88
2022-10-17T22:32:32.495Z,95237.38
2022-10-17T22:34:59.114Z,95243.75
2022-10-17T22:37:25.677Z,95238.88
2022-10-17T22:39:52.212Z,95237.25
2022-10-17T22:42:18.837Z,95248.06
2022-10-17T22:44:46.559Z,95243.84
2022-10-17T22:47:13.141Z,95246.44
2022-10-17T22:49:39.736Z,95246.44
2022-10-17T22:52:06.340Z,95241.44
2022-10-17T22:54:32.909Z,95242.25
2022-10-17T22:56:59.589Z,95243.25
2022-10-17T22:59:26.141Z,95238.13
2022-10-17T23:01:52.814Z,95244.53
2022-10-17T23:04:19.583Z,95240.47
2022-10-17T23:06:46.329Z,95230.09
2022-10-17T23:09:13.529Z,95231.00
2022-10-17T23:11:40.209Z,95232.00
2022-10-17T23:14:06.916Z,95232.59
2022-10-17T23:16:33.841Z,95226.25
2022-10-17T23:19:00.871Z,95223.84
2022-10-17T23:21:27.578Z,95230.19
2022-10-17T23:23:54.220Z,95229.66
2022-10-17T23:26:20.969Z,95240.53
2022-10-17T23:28:47.640Z,95232.13
2022-10-17T23:31:17.137Z,95232.84
2022-10-17T23:33:45.267Z,95232.84
2022-10-17T23:36:16.944Z,95225.63
2022-10-17T23:38:45.058Z,95236.31
2022-10-17T23:41:12.098Z,95212.72
2022-10-17T23:43:38.698Z,95231.38
2022-10-17T23:46:05.997Z,95227.91
2022-10-17T23:48:32.780Z,95222.72
2022-10-17T23:50:59.632Z,95221.84
2022-10-17T23:53:26.731Z,95220.47
2022-10-17T23:55:53.328Z,95219.22
2022-10-17T23:58:20.117Z,95216.66
